Time;durP1;ratioP1;P1;durP2;ratioP2;P2;SDS_P1;SDS_P2;PMS_P1;PMS_P2;Temp;Humidity;BMP_temperature;BMP_pressure;BME280_temperature;BME280_humidity;BME280_pressure;Samples;Min_cycle;Max_cycle;Signal;HPM_P1;HPM_P2
2022/11/04 00:00:14;;;;;;;0.90;0.90;;;;;;;6.96;100.00;95415.94;5066141;28;20028;-64
2022/11/04 00:02:39;;;;;;;0.75;0.75;;;;;;;6.88;100.00;95427.03;5071610;28;20037;-63
2022/11/04 00:05:05;;;;;;;3.25;0.90;;;;;;;6.70;100.00;95447.69;5071444;28;20101;-59
2022/11/04 00:10:15;;;;;;;0.80;0.80;;;;;;;6.62;100.00;95450.06;5071169;28;20517;-69
2022/11/04 00:12:40;;;;;;;0.80;0.80;;;;;;;6.58;100.00;95448.66;5071648;28;20041;-69
2022/11/04 00:17:50;;;;;;;0.85;0.85;;;;;;;6.41;100.00;95429.09;5071789;28;20067;-69
2022/11/04 00:28:42;;;;;;;0.85;0.85;;;;;;;6.27;100.00;95457.16;5070962;28;20055;-60
2022/11/04 00:33:54;;;;;;;0.85;0.82;;;;;;;6.24;100.00;95456.59;5071270;28;20094;-60
2022/11/04 00:36:21;;;;;;;0.80;0.80;;;;;;;6.18;100.00;95452.66;5071591;28;20032;-60
2022/11/04 00:38:47;;;;;;;0.80;0.80;;;;;;;6.15;100.00;95438.03;5071326;28;20078;-59
2022/11/04 00:41:24;;;;;;;0.82;0.82;;;;;;;6.11;100.00;95438.44;5066156;28;20021;-60
2022/11/04 00:43:54;;;;;;;0.90;0.90;;;;;;;6.02;100.00;95447.81;5069636;28;20036;-61
2022/11/04 00:46:20;;;;;;;0.95;0.95;;;;;;;6.05;100.00;95438.88;5069921;28;20028;-67
2022/11/04 00:48:45;;;;;;;0.90;0.90;;;;;;;6.02;100.00;95445.22;5071134;28;20032;-60
2022/11/04 00:51:10;;;;;;;2.05;1.00;;;;;;;5.97;100.00;95444.72;5070513;28;20059;-60
2022/11/04 00:53:36;;;;;;;1.15;1.10;;;;;;;5.96;100.00;95432.56;5070943;28;20032;-59
2022/11/04 00:56:01;;;;;;;0.90;0.90;;;;;;;5.98;100.00;95428.88;5070415;28;20135;-59
2022/11/04 00:58:28;;;;;;;0.88;0.88;;;;;;;5.90;100.00;95426.06;5071188;28;20066;-60
2022/11/04 01:00:53;;;;;;;1.00;1.00;;;;;;;5.90;100.00;95425.22;5065929;28;20382;-59
2022/11/04 01:03:18;;;;;;;1.10;1.10;;;;;;;5.88;100.00;95430.56;5068982;28;20043;-67
2022/11/04 01:05:44;;;;;;;6.60;0.95;;;;;;;5.88;100.00;95427.97;5070467;28;20041;-62
2022/11/04 01:08:09;;;;;;;0.93;0.93;;;;;;;5.86;100.00;95420.22;5071045;28;20032;-63
2022/11/04 01:10:43;;;;;;;0.98;0.98;;;;;;;5.81;100.00;95430.22;5067019;28;20044;-63
2022/11/04 01:13:09;;;;;;;3.60;1.10;;;;;;;5.77;100.00;95436.63;5064667;28;20048;-63
2022/11/04 01:15:36;;;;;;;1.02;0.93;;;;;;;5.70;100.00;95430.19;5070013;28;20025;-63
2022/11/04 01:18:01;;;;;;;1.30;1.20;;;;;;;5.72;100.00;95421.31;5070587;28;20056;-64
2022/11/04 01:20:26;;;;;;;2.53;1.15;;;;;;;5.74;100.00;95415.94;5069841;28;20059;-63
2022/11/04 01:22:52;;;;;;;1.20;1.10;;;;;;;5.72;100.00;95416.09;5069720;28;20078;-68
2022/11/04 01:25:17;;;;;;;1.02;1.02;;;;;;;5.68;100.00;95416.44;5070231;28;20039;-59
2022/11/04 01:27:42;;;;;;;1.30;1.30;;;;;;;5.64;100.00;95405.41;5070154;28;20049;-60
2022/11/04 01:30:09;;;;;;;0.93;0.93;;;;;;;5.63;100.00;95401.09;5069625;28;20547;-60
2022/11/04 01:32:34;;;;;;;1.20;1.13;;;;;;;5.62;100.00;95391.59;5061667;28;20056;-60
2022/11/04 01:34:59;;;;;;;1.00;1.00;;;;;;;5.60;100.00;95390.91;5069993;28;20525;-60
2022/11/04 01:37:25;;;;;;;1.30;1.30;;;;;;;5.56;100.00;95387.72;5066705;28;20041;-60
2022/11/04 01:39:51;;;;;;;1.10;1.10;;;;;;;5.53;100.00;95376.66;5069810;28;20099;-60
2022/11/04 01:42:20;;;;;;;1.00;1.00;;;;;;;5.57;100.00;95380.69;5064254;28;20032;-68
2022/11/04 01:44:54;;;;;;;1.10;1.10;;;;;;;5.55;100.00;95373.00;5069180;28;20066;-63
2022/11/04 01:47:25;;;;;;;1.50;1.40;;;;;;;5.55;100.00;95374.75;5069004;28;20490;-63
2022/11/04 01:49:56;;;;;;;1.73;1.63;;;;;;;5.42;100.00;95370.50;5069658;28;20033;-63
2022/11/04 01:52:36;;;;;;;3.63;1.20;;;;;;;5.36;100.00;95370.13;5069634;28;20119;-63
2022/11/04 01:55:07;;;;;;;1.08;1.08;;;;;;;5.27;100.00;95363.84;5067796;28;20046;-63
2022/11/04 01:57:39;;;;;;;2.78;1.23;;;;;;;5.19;100.00;95367.03;5068564;28;20490;-63
2022/11/04 02:00:06;;;;;;;1.15;1.15;;;;;;;5.16;100.00;95357.63;5069942;28;20036;-67
2022/11/04 02:02:33;;;;;;;1.85;1.35;;;;;;;5.14;100.00;95358.72;5068328;28;20119;-60
2022/11/04 02:04:59;;;;;;;1.10;1.00;;;;;;;5.10;100.00;95357.28;5069469;28;20044;-63
2022/11/04 02:07:24;;;;;;;1.00;1.00;;;;;;;5.06;100.00;95351.47;5069206;28;20029;-63
2022/11/04 02:09:50;;;;;;;1.20;1.20;;;;;;;5.06;100.00;95342.78;5069739;28;20044;-63
2022/11/04 02:14:59;;;;;;;2.50;1.40;;;;;;;4.92;100.00;95323.81;5067057;28;20043;-63
2022/11/04 02:17:46;;;;;;;1.23;1.23;;;;;;;4.88;100.00;95328.44;5069379;28;20029;-63
2022/11/04 02:20:39;;;;;;;1.40;1.30;;;;;;;4.84;100.00;95328.75;5067113;28;20043;-63
2022/11/04 02:23:41;;;;;;;1.50;1.40;;;;;;;4.75;100.00;95316.44;5067601;28;20112;-63
2022/11/04 02:26:38;;;;;;;1.30;1.30;;;;;;;4.71;100.00;95313.22;5065798;28;20059;-62
2022/11/04 02:29:26;;;;;;;1.50;1.40;;;;;;;4.64;100.00;95312.84;5069107;28;20041;-63
2022/11/04 02:32:19;;;;;;;2.05;1.45;;;;;;;4.63;100.00;95318.19;5064716;28;20234;-62
2022/11/04 02:35:07;;;;;;;4.38;1.20;;;;;;;4.55;100.00;95303.94;5066889;28;20032;-62
2022/11/04 02:37:44;;;;;;;2.50;1.10;;;;;;;4.52;100.00;95301.53;5068988;28;20119;-63
2022/11/04 02:40:24;;;;;;;1.25;1.20;;;;;;;4.49;100.00;95301.78;5068821;28;20064;-67
2022/11/04 02:43:08;;;;;;;1.52;1.35;;;;;;;4.42;100.00;95284.94;5068920;28;20040;-67
2022/11/04 02:45:45;;;;;;;1.58;1.10;;;;;;;4.39;100.00;95283.38;5060151;28;20464;-67
2022/11/04 02:48:37;;;;;;;1.63;1.30;;;;;;;4.40;100.00;95277.22;5068921;28;20036;-67
2022/11/04 02:51:11;;;;;;;3.80;1.48;;;;;;;4.39;100.00;95266.94;5067523;28;20107;-67
2022/11/04 02:53:43;;;;;;;1.30;1.20;;;;;;;4.37;100.00;95272.25;5068183;28;20028;-67
2022/11/04 02:56:10;;;;;;;1.50;1.40;;;;;;;4.31;100.00;95275.31;5068727;28;20040;-67
2022/11/04 02:58:44;;;;;;;3.03;1.10;;;;;;;4.31;100.00;95267.50;5068766;28;20033;-68
2022/11/04 03:01:13;;;;;;;1.60;1.30;;;;;;;4.26;100.00;95265.22;5067695;28;20517;-62
2022/11/04 03:03:44;;;;;;;1.23;1.17;;;;;;;4.23;100.00;95264.63;5068077;28;20158;-63
2022/11/04 03:06:13;;;;;;;1.38;1.20;;;;;;;4.22;100.00;95268.19;5068821;28;20028;-63
2022/11/04 03:08:44;;;;;;;2.28;1.73;;;;;;;4.18;100.00;95278.00;5063901;28;20119;-64
2022/11/04 03:11:14;;;;;;;2.97;1.90;;;;;;;4.16;100.00;95272.06;5068389;28;20497;-63
2022/11/04 03:13:52;;;;;;;2.25;1.80;;;;;;;4.14;100.00;95266.13;5068254;28;20056;-63
2022/11/04 03:16:28;;;;;;;1.98;1.80;;;;;;;4.10;100.00;95255.09;5059791;28;20032;-63
2022/11/04 03:19:26;;;;;;;1.90;1.80;;;;;;;4.09;100.00;95248.22;5068611;28;20063;-59
2022/11/04 03:22:03;;;;;;;2.38;2.22;;;;;;;3.99;100.00;95248.06;5034872;28;20410;-61
2022/11/04 03:24:30;;;;;;;2.05;1.90;;;;;;;3.94;100.00;95244.97;5068392;28;20036;-61
2022/11/04 03:27:06;;;;;;;2.30;2.20;;;;;;;3.94;100.00;95254.56;5068770;28;20078;-61
2022/11/04 03:29:38;;;;;;;2.55;2.35;;;;;;;3.90;100.00;95266.13;5068484;28;20154;-61
2022/11/04 03:32:16;;;;;;;3.90;1.95;;;;;;;3.89;100.00;95261.88;5074308;28;20071;-61
2022/11/04 03:34:42;;;;;;;8.95;3.13;;;;;;;3.87;100.00;95259.41;5066069;28;20232;-61
2022/11/04 03:37:07;;;;;;;3.88;2.85;;;;;;;3.79;100.00;95259.09;5067986;28;20037;-60
2022/11/04 03:39:33;;;;;;;3.53;2.95;;;;;;;3.75;100.00;95252.47;5070878;28;20054;-63
2022/11/04 03:42:18;;;;;;;5.20;2.95;;;;;;;3.78;100.00;95247.88;5068887;28;20074;-62
2022/11/04 03:44:51;;;;;;;3.72;2.15;;;;;;;3.75;100.00;95240.25;5061702;28;20174;-62
2022/11/04 03:47:19;;;;;;;5.82;2.78;;;;;;;3.71;100.00;95229.25;5078562;28;20032;-62
2022/11/04 03:49:47;;;;;;;2.50;2.20;;;;;;;3.70;100.00;95231.94;5071453;28;20036;-62
2022/11/04 03:52:13;;;;;;;3.85;3.17;;;;;;;3.70;100.00;95225.00;5072123;28;20036;-62
2022/11/04 03:54:39;;;;;;;3.15;2.40;;;;;;;3.66;100.00;95220.94;5084013;28;20506;-62
2022/11/04 03:57:26;;;;;;;2.97;2.60;;;;;;;3.64;100.00;95220.19;5074744;28;20402;-67
2022/11/04 04:00:05;;;;;;;3.83;3.05;;;;;;;3.64;100.00;95209.78;5071767;28;20036;-66
2022/11/04 04:02:55;;;;;;;3.53;3.00;;;;;;;3.67;100.00;95203.53;5072136;28;20048;-67
2022/11/04 04:05:36;;;;;;;2.50;2.30;;;;;;;3.52;100.00;95208.91;5071281;28;20051;-67
2022/11/04 04:08:17;;;;;;;3.28;2.45;;;;;;;3.49;100.00;95198.72;5071600;28;20537;-66
2022/11/04 04:10:54;;;;;;;2.38;2.17;;;;;;;3.49;100.00;95200.50;5071273;28;20111;-67
2022/11/04 04:13:36;;;;;;;2.30;1.98;;;;;;;3.53;100.00;95194.94;5070543;28;20041;-66
2022/11/04 04:16:20;;;;;;;5.25;2.20;;;;;;;3.56;100.00;95199.13;5072081;28;20045;-63
2022/11/04 04:19:00;;;;;;;1.90;1.80;;;;;;;3.69;100.00;95207.72;5070908;28;20406;-59
2022/11/04 04:21:32;;;;;;;2.90;2.10;;;;;;;3.76;100.00;95212.47;5071385;28;20174;-60
2022/11/04 04:29:31;;;;;;;5.43;3.20;;;;;;;3.47;100.00;95216.22;5067719;28;20051;-60
2022/11/04 04:31:57;;;;;;;6.35;3.88;;;;;;;3.41;100.00;95224.47;5068276;28;20459;-60
2022/11/04 04:34:26;;;;;;;5.57;5.07;;;;;;;3.41;100.00;95217.47;5070851;28;20116;-60
2022/11/04 04:37:01;;;;;;;4.82;4.43;;;;;;;3.36;100.00;95211.78;5072375;28;20086;-61
2022/11/04 04:45:05;;;;;;;7.68;4.18;;;;;;;3.31;100.00;95200.88;5071114;28;20458;-59
2022/11/04 04:47:34;;;;;;;3.65;3.35;;;;;;;3.28;100.00;95196.72;5079642;28;20124;-60
2022/11/04 04:50:00;;;;;;;3.85;3.40;;;;;;;3.23;100.00;95208.41;5070641;28;20445;-61
2022/11/04 04:52:33;;;;;;;5.47;3.58;;;;;;;3.24;100.00;95207.47;5071321;28;20533;-60
2022/11/04 04:54:58;;;;;;;4.72;3.40;;;;;;;3.24;100.00;95197.88;5052500;28;20120;-59
2022/11/04 04:57:24;;;;;;;3.20;3.00;;;;;;;3.21;100.00;95205.09;5069579;28;20108;-64
2022/11/04 04:59:49;;;;;;;3.20;3.00;;;;;;;3.12;100.00;95207.38;5071338;28;20451;-60
2022/11/04 05:02:15;;;;;;;10.43;7.65;;;;;;;3.11;100.00;95207.50;5071249;28;20489;-60
2022/11/04 05:04:40;;;;;;;5.60;5.00;;;;;;;3.15;100.00;95206.34;5071382;28;20520;-60
2022/11/04 05:07:06;;;;;;;2.88;2.67;;;;;;;3.12;100.00;95196.16;5070913;28;20119;-60
2022/11/04 05:09:32;;;;;;;2.75;2.30;;;;;;;3.14;100.00;95204.69;5071073;28;20036;-61
2022/11/04 05:11:57;;;;;;;2.65;2.42;;;;;;;3.18;100.00;95206.13;5070394;28;20044;-61
2022/11/04 05:14:23;;;;;;;5.22;2.20;;;;;;;3.20;100.00;95203.41;5071030;28;20086;-62
2022/11/04 05:16:48;;;;;;;4.43;2.47;;;;;;;3.19;100.00;95188.72;5070934;28;20060;-69
2022/11/04 05:19:13;;;;;;;6.28;2.42;;;;;;;3.17;100.00;95180.19;5071079;28;20031;-60
2022/11/04 05:21:39;;;;;;;6.07;5.40;;;;;;;3.14;100.00;95186.47;5067967;28;20074;-60
2022/11/04 05:24:04;;;;;;;6.60;3.50;;;;;;;3.20;100.00;95174.78;5070577;28;20487;-60
2022/11/04 05:26:30;;;;;;;4.10;2.85;;;;;;;3.13;100.00;95185.63;5069934;28;20463;-60
2022/11/04 05:28:55;;;;;;;3.38;2.67;;;;;;;3.10;100.00;95174.63;5075107;28;20540;-60
2022/11/04 05:31:20;;;;;;;2.92;2.65;;;;;;;3.07;100.00;95167.88;5070262;28;20050;-60
2022/11/04 05:33:46;;;;;;;10.57;7.15;;;;;;;3.06;100.00;95163.59;5070810;28;20038;-62
2022/11/04 05:36:13;;;;;;;6.10;5.50;;;;;;;3.08;100.00;95161.72;5070787;28;20028;-61
2022/11/04 05:38:39;;;;;;;8.25;4.95;;;;;;;3.05;100.00;95161.94;5066084;28;20029;-60
2022/11/04 05:41:07;;;;;;;6.90;4.32;;;;;;;3.04;100.00;95157.69;5070285;28;20045;-60
2022/11/04 05:43:33;;;;;;;5.10;4.45;;;;;;;3.06;100.00;95158.41;5070341;28;20560;-61
2022/11/04 05:45:59;;;;;;;4.22;3.92;;;;;;;3.07;100.00;95157.47;5071313;28;20039;-61
2022/11/04 05:48:25;;;;;;;5.03;4.00;;;;;;;3.08;100.00;95153.91;5081230;28;20406;-60
2022/11/04 05:50:51;;;;;;;5.93;3.80;;;;;;;3.09;100.00;95155.56;5069958;28;20043;-61
2022/11/04 05:53:16;;;;;;;6.03;3.83;;;;;;;3.14;100.00;95148.28;5070621;28;20040;-68
2022/11/04 05:55:41;;;;;;;3.60;2.45;;;;;;;3.18;100.00;95145.44;5069955;28;20028;-60
2022/11/04 05:58:07;;;;;;;5.18;2.75;;;;;;;3.25;100.00;95146.69;5070228;28;20452;-60
2022/11/04 06:00:32;;;;;;;2.58;2.38;;;;;;;3.31;100.00;95141.03;5069816;28;20158;-60
2022/11/04 06:02:58;;;;;;;4.82;2.55;;;;;;;3.36;100.00;95135.50;5069649;28;20075;-60
2022/11/04 06:05:24;;;;;;;2.10;2.00;;;;;;;3.41;100.00;95144.63;5069482;28;20081;-60
2022/11/04 06:07:49;;;;;;;2.42;2.30;;;;;;;3.46;100.00;95146.88;5069945;28;20379;-60
2022/11/04 06:10:15;;;;;;;5.03;2.58;;;;;;;3.47;100.00;95148.56;5082396;28;20054;-61
2022/11/04 06:12:40;;;;;;;2.60;2.40;;;;;;;3.55;100.00;95154.03;5068742;28;20424;-60
2022/11/04 06:15:07;;;;;;;3.35;2.40;;;;;;;3.63;100.00;95145.66;5069832;28;20081;-60
2022/11/04 06:17:32;;;;;;;5.05;3.95;;;;;;;3.70;100.00;95141.66;5057838;28;20398;-60
2022/11/04 06:19:57;;;;;;;5.40;5.10;;;;;;;3.74;100.00;95139.66;5069313;28;20044;-60
2022/11/04 06:22:23;;;;;;;6.93;6.00;;;;;;;3.77;100.00;95136.00;5069547;28;20036;-60
2022/11/04 06:24:48;;;;;;;3.97;3.70;;;;;;;3.77;100.00;95116.00;5069662;28;20476;-60
2022/11/04 06:27:14;;;;;;;5.75;5.25;;;;;;;3.79;100.00;95111.53;5069327;28;20075;-60
2022/11/04 06:29:40;;;;;;;10.77;6.78;;;;;;;3.85;100.00;95105.00;5069548;28;20040;-60
2022/11/04 06:32:17;;;;;;;4.25;3.88;;;;;;;3.90;100.00;95105.50;5065205;28;20501;-69
2022/11/04 06:34:43;;;;;;;3.92;3.63;;;;;;;3.90;100.00;95102.91;5069406;28;20037;-61
2022/11/04 06:37:09;;;;;;;3.53;3.08;;;;;;;3.93;100.00;95096.63;5069588;28;20521;-61
2022/11/04 06:39:35;;;;;;;5.53;3.20;;;;;;;3.99;100.00;95094.38;5069446;28;20025;-61
2022/11/04 06:42:01;;;;;;;3.28;2.97;;;;;;;4.06;100.00;95096.50;5069195;28;20028;-61
2022/11/04 06:44:26;;;;;;;9.02;7.55;;;;;;;4.12;100.00;95088.25;5069267;28;21223;-61
2022/11/04 06:46:52;;;;;;;7.80;7.00;;;;;;;4.15;100.00;95095.84;5078315;28;20111;-61
2022/11/04 06:49:19;;;;;;;5.85;5.25;;;;;;;4.19;100.00;95092.03;5072604;28;20056;-61
2022/11/04 06:51:46;;;;;;;9.18;6.32;;;;;;;4.42;100.00;95097.25;5069409;28;20520;-60
2022/11/04 06:54:12;;;;;;;11.07;9.93;;;;;;;4.29;100.00;95092.97;5061005;28;20115;-60
2022/11/04 06:56:38;;;;;;;12.07;9.90;;;;;;;4.21;100.00;95079.72;5068898;28;20116;-60
2022/11/04 06:59:03;;;;;;;12.32;9.15;;;;;;;4.22;100.00;95080.56;5068659;28;20028;-60
2022/11/04 07:01:32;;;;;;;11.75;8.82;;;;;;;4.20;100.00;95075.47;5068283;28;20749;-60
2022/11/04 07:03:59;;;;;;;12.63;8.13;;;;;;;4.23;100.00;95083.03;5064929;28;20028;-60
2022/11/04 07:06:25;;;;;;;8.98;7.47;;;;;;;4.29;100.00;95092.97;5067704;28;20043;-60
2022/11/04 07:08:52;;;;;;;9.95;7.55;;;;;;;4.35;100.00;95091.69;5067469;28;20036;-60
2022/11/04 07:11:19;;;;;;;9.32;6.00;;;;;;;4.44;100.00;95098.81;5067930;28;20036;-68
2022/11/04 07:13:45;;;;;;;8.82;6.43;;;;;;;4.56;100.00;95089.22;5066405;28;20532;-63
2022/11/04 07:16:11;;;;;;;8.05;6.43;;;;;;;4.67;100.00;95080.53;5067897;28;20034;-63
2022/11/04 07:18:37;;;;;;;6.82;5.95;;;;;;;4.71;100.00;95081.09;5067566;28;20421;-62
2022/11/04 07:21:03;;;;;;;7.55;5.60;;;;;;;4.70;100.00;95082.91;5071481;28;20029;-63
2022/11/04 07:23:29;;;;;;;6.07;5.18;;;;;;;4.78;100.00;95079.69;5069171;28;20041;-63
2022/11/04 07:25:59;;;;;;;5.13;4.30;;;;;;;4.85;100.00;95073.03;5071841;28;20068;-61
2022/11/04 07:28:24;;;;;;;6.07;3.92;;;;;;;4.90;100.00;95072.69;5072517;28;20474;-67
2022/11/04 07:30:50;;;;;;;4.80;4.38;;;;;;;4.97;100.00;95071.22;5071621;28;20032;-66
2022/11/04 07:33:17;;;;;;;7.82;5.30;;;;;;;5.08;100.00;95072.13;5071478;28;20518;-65
2022/11/04 07:35:44;;;;;;;7.25;4.43;;;;;;;5.18;100.00;95070.47;5071287;28;20448;-65
2022/11/04 07:38:09;;;;;;;5.63;3.80;;;;;;;5.22;100.00;95077.06;5071229;28;20024;-63
2022/11/04 07:40:35;;;;;;;6.15;4.40;;;;;;;5.38;100.00;95079.28;5071460;28;20538;-64
2022/11/04 07:43:00;;;;;;;11.05;6.35;;;;;;;5.36;100.00;95081.19;5071333;28;20106;-65
2022/11/04 07:45:26;;;;;;;6.32;4.13;;;;;;;5.38;100.00;95092.31;5071367;28;20048;-65
2022/11/04 07:47:51;;;;;;;3.60;3.30;;;;;;;5.48;100.00;95095.00;5073405;28;20037;-69
2022/11/04 07:50:17;;;;;;;3.67;3.38;;;;;;;5.50;100.00;95102.72;5072847;28;20056;-66
2022/11/04 07:52:42;;;;;;;4.97;4.03;;;;;;;5.53;100.00;95100.72;5071551;28;20032;-60
2022/11/04 07:55:09;;;;;;;4.13;3.60;;;;;;;5.47;100.00;95097.75;5070873;28;20494;-60
2022/11/04 07:57:34;;;;;;;7.13;4.78;;;;;;;5.48;100.00;95095.00;5070249;28;20032;-61
2022/11/04 08:00:00;;;;;;;6.75;4.45;;;;;;;5.50;100.00;95087.88;5071068;28;20033;-60
2022/11/04 08:02:25;;;;;;;4.47;3.60;;;;;;;5.53;100.00;95084.19;5071903;28;20039;-60
2022/11/04 08:04:51;;;;;;;3.38;3.03;;;;;;;5.55;100.00;95074.44;5070442;28;20112;-60
2022/11/04 08:07:16;;;;;;;4.68;3.60;;;;;;;5.57;100.00;95064.72;5062202;28;20064;-65
2022/11/04 08:09:41;;;;;;;7.13;5.20;;;;;;;5.61;100.00;95057.47;5071289;28;20158;-70
2022/11/04 08:12:07;;;;;;;8.63;3.70;;;;;;;5.66;100.00;95056.13;5070404;28;20128;-60
2022/11/04 08:14:33;;;;;;;12.10;3.63;;;;;;;5.72;100.00;95046.94;5071649;28;20066;-61
2022/11/04 08:16:58;;;;;;;5.78;4.00;;;;;;;5.71;100.00;95045.28;5071458;28;20124;-60
2022/11/04 08:19:24;;;;;;;4.97;4.43;;;;;;;5.74;100.00;95038.03;5071590;28;20040;-60
2022/11/04 08:21:49;;;;;;;5.13;3.38;;;;;;;5.71;100.00;95033.06;5071107;28;20028;-60
2022/11/04 08:24:15;;;;;;;3.13;2.90;;;;;;;5.71;100.00;95027.00;5071579;28;20036;-61
2022/11/04 08:26:41;;;;;;;4.90;3.30;;;;;;;5.74;100.00;95014.53;5069991;28;20101;-65
2022/11/04 08:29:07;;;;;;;2.30;2.10;;;;;;;5.81;100.00;95007.00;5071084;28;20043;-62
2022/11/04 08:31:33;;;;;;;4.13;2.33;;;;;;;5.87;100.00;95005.66;5070407;28;20123;-60
2022/11/04 08:34:00;;;;;;;2.88;2.33;;;;;;;5.91;100.00;95016.66;5071256;28;20090;-60
2022/11/04 08:36:31;;;;;;;3.45;2.45;;;;;;;5.98;100.00;95021.25;5070817;28;20039;-60
2022/11/04 08:38:57;;;;;;;4.45;2.42;;;;;;;6.02;100.00;95020.06;5070295;28;20477;-61
2022/11/04 08:41:29;;;;;;;3.13;2.78;;;;;;;6.15;100.00;95026.84;5070901;28;20120;-61
2022/11/04 08:43:58;;;;;;;2.83;2.15;;;;;;;6.25;100.00;95017.25;5070592;28;20557;-61
2022/11/04 08:46:24;;;;;;;3.33;2.90;;;;;;;6.43;100.00;95016.63;5068882;28;20139;-67
2022/11/04 08:48:49;;;;;;;4.10;3.70;;;;;;;6.50;100.00;95011.69;5070228;28;20587;-65
2022/11/04 08:51:19;;;;;;;4.05;3.40;;;;;;;6.54;100.00;95000.00;5083230;28;20074;-66
2022/11/04 08:53:44;;;;;;;3.90;3.50;;;;;;;6.52;100.00;94992.31;5069886;28;20044;-66
2022/11/04 08:56:15;;;;;;;3.97;3.55;;;;;;;6.67;100.00;94986.69;5065837;28;20033;-65
2022/11/04 08:58:41;;;;;;;3.53;2.88;;;;;;;6.86;100.00;94980.66;5068925;28;20044;-66
2022/11/04 09:01:06;;;;;;;6.15;3.10;;;;;;;6.99;100.00;94981.22;5070894;28;20036;-66
2022/11/04 09:03:33;;;;;;;3.70;3.03;;;;;;;6.96;100.00;94978.03;5070260;28;20139;-65
2022/11/04 09:05:59;;;;;;;5.70;2.90;;;;;;;6.92;100.00;94976.66;5069690;28;20115;-67
2022/11/04 09:08:24;;;;;;;5.53;5.03;;;;;;;6.99;100.00;94985.63;5070365;28;20123;-67
2022/11/04 09:10:49;;;;;;;4.63;4.05;;;;;;;7.11;100.00;94975.84;5074577;28;20028;-67
2022/11/04 09:13:15;;;;;;;3.97;3.45;;;;;;;7.00;100.00;94976.81;5078849;28;20052;-68
2022/11/04 09:15:41;;;;;;;4.43;3.42;;;;;;;6.98;100.00;94973.50;5070299;28;20512;-68
2022/11/04 09:18:07;;;;;;;3.40;3.20;;;;;;;7.09;100.00;94964.69;5070105;28;20044;-68
2022/11/04 09:20:33;;;;;;;9.88;3.03;;;;;;;7.02;100.00;94953.94;5069838;28;20413;-67
2022/11/04 09:22:59;;;;;;;3.20;2.97;;;;;;;6.91;100.00;94951.44;5069525;28;20414;-65
2022/11/04 09:25:24;;;;;;;4.25;3.08;;;;;;;6.96;100.00;94954.47;5070236;28;20032;-59
2022/11/04 09:27:50;;;;;;;4.28;3.42;;;;;;;6.88;100.00;94949.94;5069735;28;20067;-61
2022/11/04 09:30:16;;;;;;;3.35;3.08;;;;;;;6.79;100.00;94945.53;5052432;28;20036;-60
2022/11/04 09:32:42;;;;;;;5.25;2.72;;;;;;;6.73;100.00;94944.28;5069641;28;20025;-61
2022/11/04 09:35:07;;;;;;;3.08;2.78;;;;;;;6.76;100.00;94941.41;5070070;28;20419;-60
2022/11/04 09:37:33;;;;;;;2.78;2.58;;;;;;;6.83;100.00;94925.97;5069317;28;20024;-60
2022/11/04 09:39:58;;;;;;;2.47;2.28;;;;;;;6.89;100.00;94925.44;5070193;28;20481;-60
2022/11/04 09:42:31;;;;;;;2.20;2.00;;;;;;;6.81;100.00;94926.13;5069021;28;20052;-60
2022/11/04 09:45:04;;;;;;;5.00;2.10;;;;;;;6.83;100.00;94918.13;5069923;28;20093;-61
2022/11/04 09:47:32;;;;;;;3.63;2.40;;;;;;;6.95;100.00;94916.19;5062996;28;20040;-60
2022/11/04 09:49:59;;;;;;;2.33;2.13;;;;;;;6.82;100.00;94917.31;5069537;28;20086;-60
2022/11/04 09:52:38;;;;;;;7.57;5.47;;;;;;;6.86;100.00;94910.03;5051649;28;20032;-60
2022/11/04 09:55:11;;;;;;;3.97;3.60;;;;;;;6.85;100.00;94918.81;5069929;28;20516;-60
2022/11/04 09:57:36;;;;;;;8.15;3.85;;;;;;;6.84;100.00;94923.22;5060522;28;20041;-60
2022/11/04 10:00:03;;;;;;;11.32;4.18;;;;;;;6.92;100.00;94925.16;5069462;28;20044;-60
2022/11/04 10:02:53;;;;;;;4.45;3.85;;;;;;;7.00;100.00;94919.25;5068418;28;20032;-60
2022/11/04 10:05:26;;;;;;;5.45;4.70;;;;;;;7.17;100.00;94922.94;5068972;28;20071;-65
2022/11/04 10:08:29;;;;;;;11.07;5.63;;;;;;;7.26;100.00;94926.50;5061852;28;20551;-69
2022/11/04 10:11:12;;;;;;;13.07;9.20;;;;;;;7.32;100.00;94928.56;5068199;28;20075;-69
2022/11/04 10:14:28;;;;;;;5.70;5.07;;;;;;;7.31;100.00;94922.50;5069313;28;20560;-69
2022/11/04 10:17:18;;;;;;;4.75;4.22;;;;;;;7.19;100.00;94914.94;5031978;28;20028;-69
2022/11/04 10:19:46;;;;;;;6.60;3.95;;;;;;;7.11;100.00;94916.47;5068630;28;20039;-69
2022/11/04 10:22:17;;;;;;;4.70;4.03;;;;;;;7.02;100.00;94917.31;5067295;28;20036;-68
2022/11/04 10:25:02;;;;;;;3.75;3.45;;;;;;;6.96;100.00;94918.69;5068869;28;20044;-60
2022/11/04 10:27:32;;;;;;;6.30;3.30;;;;;;;6.86;100.00;94913.44;5057813;28;20649;-60
2022/11/04 10:30:00;;;;;;;5.88;2.92;;;;;;;6.80;100.00;94927.09;5064605;28;20520;-60
2022/11/04 10:32:35;;;;;;;5.43;3.53;;;;;;;6.80;100.00;94923.63;5050911;28;20123;-60
2022/11/04 10:35:33;;;;;;;6.78;5.57;;;;;;;6.80;100.00;94924.47;5069033;28;20107;-60
2022/11/04 10:38:27;;;;;;;6.40;4.40;;;;;;;6.88;100.00;94927.22;5063783;28;20029;-60
2022/11/04 10:40:54;;;;;;;5.45;4.65;;;;;;;6.75;100.00;94931.91;5062017;28;20387;-60
2022/11/04 10:43:33;;;;;;;5.38;4.88;;;;;;;6.78;100.00;94931.63;5068900;28;20036;-65
2022/11/04 10:46:26;;;;;;;6.95;4.97;;;;;;;7.17;100.00;94931.59;5062898;28;20417;-68
2022/11/04 10:49:10;;;;;;;7.78;5.35;;;;;;;6.83;100.00;94942.50;5067162;28;20143;-68
2022/11/04 10:51:35;;;;;;;5.05;4.60;;;;;;;6.95;100.00;94952.81;5064887;28;20040;-67
2022/11/04 10:54:02;;;;;;;5.68;4.20;;;;;;;6.63;100.00;94944.28;5065001;28;20024;-68
2022/11/04 10:56:44;;;;;;;5.78;5.28;;;;;;;6.57;100.00;94942.19;5067284;28;20501;-69
2022/11/04 10:59:23;;;;;;;7.32;5.40;;;;;;;6.62;100.00;94947.84;5066355;28;20074;-68
2022/11/04 11:01:55;;;;;;;7.00;5.85;;;;;;;6.69;100.00;94928.03;5062848;28;20237;-61
2022/11/04 11:04:27;;;;;;;6.85;6.10;;;;;;;6.77;100.00;94923.91;5065656;28;20083;-67
2022/11/04 11:06:54;;;;;;;7.35;6.07;;;;;;;6.90;100.00;94921.00;5066987;28;20028;-68
2022/11/04 11:09:29;;;;;;;6.93;6.22;;;;;;;7.05;100.00;94914.41;5066604;28;20036;-68
2022/11/04 11:12:05;;;;;;;9.43;6.40;;;;;;;7.31;100.00;94919.88;5058347;28;20040;-68
2022/11/04 11:14:34;;;;;;;5.82;5.32;;;;;;;7.43;100.00;94923.16;5063055;28;20170;-68
2022/11/04 11:17:15;;;;;;;9.82;7.05;;;;;;;7.57;100.00;94921.06;5061655;28;20052;-68
2022/11/04 11:19:52;;;;;;;6.78;6.13;;;;;;;7.63;100.00;94915.25;5067039;28;20149;-63
2022/11/04 11:22:30;;;;;;;6.85;4.95;;;;;;;7.69;100.00;94909.44;5066912;28;20036;-64
2022/11/04 11:25:13;;;;;;;5.55;4.22;;;;;;;7.68;100.00;94917.44;5066848;28;20047;-68
2022/11/04 11:27:43;;;;;;;9.77;6.05;;;;;;;7.70;100.00;94915.50;5059137;28;20028;-68
2022/11/04 11:30:19;;;;;;;10.35;6.18;;;;;;;7.70;100.00;94913.72;5066782;28;20032;-68
2022/11/04 11:32:45;;;;;;;8.13;4.53;;;;;;;7.72;100.00;94909.16;5067544;28;20031;-68
2022/11/04 11:35:18;;;;;;;3.38;3.10;;;;;;;7.80;100.00;94913.69;5061306;28;20040;-68
2022/11/04 11:37:46;;;;;;;5.20;3.88;;;;;;;7.66;100.00;94912.34;5059349;28;20043;-68
2022/11/04 11:40:36;;;;;;;5.65;4.10;;;;;;;7.50;100.00;94914.75;5064786;28;20036;-61
2022/11/04 11:43:03;;;;;;;7.35;5.65;;;;;;;7.57;100.00;94921.88;5064497;28;20070;-62
2022/11/04 11:45:30;;;;;;;7.70;5.18;;;;;;;7.48;100.00;94932.41;5067034;28;20045;-61
2022/11/04 11:47:57;;;;;;;5.72;5.22;;;;;;;7.27;100.00;94936.00;5066009;28;20549;-61
2022/11/04 11:50:32;;;;;;;9.45;5.20;;;;;;;7.23;100.00;94947.72;5066746;28;20033;-62
2022/11/04 11:53:16;;;;;;;7.65;5.70;;;;;;;7.24;100.00;94952.00;5066228;28;20033;-61
2022/11/04 11:56:13;;;;;;;10.13;7.32;;;;;;;7.09;100.00;94955.03;5059631;28;20025;-61
2022/11/04 11:58:48;;;;;;;21.85;14.20;;;;;;;7.11;100.00;94966.19;5063750;28;20074;-59
2022/11/04 12:01:34;;;;;;;8.18;7.15;;;;;;;6.88;100.00;94963.03;5066969;28;20090;-66
2022/11/04 12:03:59;;;;;;;7.18;6.47;;;;;;;6.79;100.00;94975.16;5066704;28;20115;-67
2022/11/04 12:06:28;;;;;;;10.25;7.88;;;;;;;6.97;100.00;94990.19;5068767;28;20505;-67
2022/11/04 12:09:20;;;;;;;2.92;2.72;;;;;;;7.36;100.00;94982.28;5069404;28;20044;-67
2022/11/04 12:12:02;;;;;;;2.60;2.40;;;;;;;6.90;100.00;94994.28;5070439;28;20039;-66
2022/11/04 12:14:49;;;;;;;4.88;3.03;;;;;;;6.81;100.00;95014.25;5068862;28;20450;-67
2022/11/04 12:18:08;;;;;;;1.85;1.75;;;;;;;6.85;100.00;95013.00;5066691;28;20504;-59
2022/11/04 12:20:39;;;;;;;2.15;2.05;;;;;;;6.80;100.00;95023.91;4974070;28;20042;-59